This is the latest recevied weather packets stored in our database for station/object SV3CQY. If no packets are shown the sender has not sent any weather packets the latest 10 day(s).
| Time | Temp. | Humidity | Pressure | Rain* | Wind** | Luminosity | Snow |
|---|---|---|---|---|---|---|---|
| 1777782011 | 7.78° C | 74% | 1015.9 hPa | 0 mm | - | - | - |
| 1777776612 | 8.89° C | 70% | 1015.6 hPa | 0 mm | - | - | - |
| 1777776328 | 8.89° C | 71% | 1015.7 hPa | 0 mm | - | - | - |
| 1777776013 | 8.89° C | 71% | 1015.8 hPa | 0 mm | - | - | - |
| 1777772727 | 7.22° C | 69% | 1016.1 hPa | 0 mm | - | - | - |
| 1777772408 | 7.22° C | 70% | 1016 hPa | 0 mm | - | - | - |
| 1777766433 | 7.78° C | 64% | 1017.1 hPa | 0 mm | - | - | - |
| 1777764015 | 7.78° C | 63% | 1017.3 hPa | 0 mm | - | - | - |
| 1777763731 | 7.78° C | 63% | 1017.5 hPa | 0 mm | - | - | - |
| 1777761929 | 8.89° C | 59% | 1017.8 hPa | 0 mm | - | - | - |
| 1777759813 | 9.44° C | 57% | 1018.2 hPa | 0 mm | - | - | - |
| 1777757429 | 8.89° C | 59% | 1018.3 hPa | 0 mm | - | - | - |
| 1777756542 | 8.89° C | 58% | 1018.5 hPa | 0 mm | - | - | - |
| 1777756211 | 9.44° C | 58% | 1018.4 hPa | 0 mm | - | - | - |
| 1777754726 | 9.44° C | 56% | 1018.5 hPa | 0 mm | - | - | - |
| 1777753828 | 9.44° C | 56% | 1018.5 hPa | 0 mm | - | - | - |
| 1777753512 | 9.44° C | 55% | 1018.5 hPa | 0 mm | - | - | - |
| 1777752928 | 10° C | 55% | 1018.7 hPa | 0 mm | - | - | - |
| 1777751411 | 11.11° C | 49% | 1018.6 hPa | 0 mm | - | - | - |
| 1777751132 | 11.11° C | 49% | 1018.5 hPa | 0 mm | - | - | - |
| 1777750814 | 11.11° C | 49% | 1018.4 hPa | 0 mm | - | - | - |
| 1777748713 | 11.11° C | 49% | 1018.1 hPa | 0 mm | - | - | - |
| 1777746911 | 12.22° C | 45% | 1017.8 hPa | 0 mm | - | - | - |
| 1777744214 | 12.78° C | 44% | 1017.6 hPa | 0 mm | - | - | - |
| 1777743928 | 12.22° C | 45% | 1017.7 hPa | 0 mm | - | - | - |
* Rain latest hour (hover to see other rain measurements)
** Current wind speed in m/s (hover to see current wind gust speed)